sensor_id;sensor_type;location;lat;lon;timestamp;P1;durP1;ratioP1;P2;durP2;ratioP2
75682;SDS011;64295;44.772;39.872;2023-07-31T00:01:48;5.35;;;3.13;;
75682;SDS011;64295;44.772;39.872;2023-07-31T00:04:14;5.80;;;3.53;;
75682;SDS011;64295;44.772;39.872;2023-07-31T00:06:40;6.78;;;3.38;;
75682;SDS011;64295;44.772;39.872;2023-07-31T00:09:06;5.18;;;3.50;;
75682;SDS011;64295;44.772;39.872;2023-07-31T00:11:31;7.55;;;3.72;;
75682;SDS011;64295;44.772;39.872;2023-07-31T00:13:57;9.15;;;3.95;;
75682;SDS011;64295;44.772;39.872;2023-07-31T00:16:24;5.57;;;4.07;;
75682;SDS011;64295;44.772;39.872;2023-07-31T00:18:49;7.15;;;3.58;;
75682;SDS011;64295;44.772;39.872;2023-07-31T00:21:15;5.13;;;2.92;;
75682;SDS011;64295;44.772;39.872;2023-07-31T00:23:41;4.45;;;3.30;;
75682;SDS011;64295;44.772;39.872;2023-07-31T00:26:07;3.70;;;3.22;;
75682;SDS011;64295;44.772;39.872;2023-07-31T00:28:33;5.32;;;3.72;;
75682;SDS011;64295;44.772;39.872;2023-07-31T00:30:59;6.38;;;3.63;;
75682;SDS011;64295;44.772;39.872;2023-07-31T00:33:25;7.57;;;2.97;;
75682;SDS011;64295;44.772;39.872;2023-07-31T00:35:51;6.88;;;2.50;;
75682;SDS011;64295;44.772;39.872;2023-07-31T00:38:17;3.85;;;2.58;;
75682;SDS011;64295;44.772;39.872;2023-07-31T00:40:43;7.43;;;3.03;;
75682;SDS011;64295;44.772;39.872;2023-07-31T00:43:09;5.53;;;3.55;;
75682;SDS011;64295;44.772;39.872;2023-07-31T00:45:35;5.57;;;3.88;;
75682;SDS011;64295;44.772;39.872;2023-07-31T00:48:01;4.13;;;3.00;;
75682;SDS011;64295;44.772;39.872;2023-07-31T00:50:27;4.22;;;3.05;;
75682;SDS011;64295;44.772;39.872;2023-07-31T00:52:54;6.72;;;2.72;;
75682;SDS011;64295;44.772;39.872;2023-07-31T00:55:20;5.57;;;3.40;;
75682;SDS011;64295;44.772;39.872;2023-07-31T00:57:47;5.47;;;3.00;;
75682;SDS011;64295;44.772;39.872;2023-07-31T01:00:13;7.28;;;3.10;;
75682;SDS011;64295;44.772;39.872;2023-07-31T01:02:39;3.97;;;3.10;;
75682;SDS011;64295;44.772;39.872;2023-07-31T01:05:05;5.60;;;2.88;;
75682;SDS011;64295;44.772;39.872;2023-07-31T01:07:39;5.45;;;3.45;;
75682;SDS011;64295;44.772;39.872;2023-07-31T01:10:16;5.88;;;2.60;;
75682;SDS011;64295;44.772;39.872;2023-07-31T01:12:47;4.75;;;3.35;;
75682;SDS011;64295;44.772;39.872;2023-07-31T01:15:17;4.55;;;3.05;;
75682;SDS011;64295;44.772;39.872;2023-07-31T01:17:43;5.80;;;2.85;;
75682;SDS011;64295;44.772;39.872;2023-07-31T01:20:13;9.10;;;2.83;;
75682;SDS011;64295;44.772;39.872;2023-07-31T01:28:33;9.10;;;3.03;;
75682;SDS011;64295;44.772;39.872;2023-07-31T01:31:16;6.20;;;3.10;;
75682;SDS011;64295;44.772;39.872;2023-07-31T01:33:46;3.70;;;2.58;;
75682;SDS011;64295;44.772;39.872;2023-07-31T01:36:13;7.93;;;3.17;;
75682;SDS011;64295;44.772;39.872;2023-07-31T01:38:39;4.28;;;2.95;;
75682;SDS011;64295;44.772;39.872;2023-07-31T01:41:05;4.47;;;2.35;;
75682;SDS011;64295;44.772;39.872;2023-07-31T01:43:31;5.40;;;3.00;;
75682;SDS011;64295;44.772;39.872;2023-07-31T01:45:57;2.47;;;1.90;;
75682;SDS011;64295;44.772;39.872;2023-07-31T01:48:23;4.38;;;2.15;;
75682;SDS011;64295;44.772;39.872;2023-07-31T01:50:49;6.97;;;3.30;;
75682;SDS011;64295;44.772;39.872;2023-07-31T01:53:17;6.03;;;3.05;;
75682;SDS011;64295;44.772;39.872;2023-07-31T01:55:43;4.90;;;2.65;;
75682;SDS011;64295;44.772;39.872;2023-07-31T01:58:09;2.92;;;2.60;;
75682;SDS011;64295;44.772;39.872;2023-07-31T02:00:35;5.22;;;2.28;;
75682;SDS011;64295;44.772;39.872;2023-07-31T02:03:01;3.33;;;2.83;;
75682;SDS011;64295;44.772;39.872;2023-07-31T02:05:27;4.47;;;2.95;;
75682;SDS011;64295;44.772;39.872;2023-07-31T02:07:53;5.32;;;2.97;;
75682;SDS011;64295;44.772;39.872;2023-07-31T02:10:19;5.38;;;3.60;;
75682;SDS011;64295;44.772;39.872;2023-07-31T02:12:45;5.28;;;2.53;;
75682;SDS011;64295;44.772;39.872;2023-07-31T02:15:11;7.25;;;3.35;;
75682;SDS011;64295;44.772;39.872;2023-07-31T02:17:37;4.38;;;2.92;;
75682;SDS011;64295;44.772;39.872;2023-07-31T02:20:03;4.25;;;2.50;;
75682;SDS011;64295;44.772;39.872;2023-07-31T02:22:29;3.83;;;2.22;;
75682;SDS011;64295;44.772;39.872;2023-07-31T02:24:55;3.35;;;2.28;;
75682;SDS011;64295;44.772;39.872;2023-07-31T02:27:21;5.07;;;2.75;;
75682;SDS011;64295;44.772;39.872;2023-07-31T02:29:49;6.35;;;2.85;;
75682;SDS011;64295;44.772;39.872;2023-07-31T02:32:15;5.03;;;2.72;;
75682;SDS011;64295;44.772;39.872;2023-07-31T02:34:41;4.68;;;2.60;;
75682;SDS011;64295;44.772;39.872;2023-07-31T02:37:06;4.15;;;2.40;;
75682;SDS011;64295;44.772;39.872;2023-07-31T02:39:32;4.32;;;2.25;;
75682;SDS011;64295;44.772;39.872;2023-07-31T02:41:59;4.25;;;2.58;;
75682;SDS011;64295;44.772;39.872;2023-07-31T02:44:25;2.38;;;2.17;;
75682;SDS011;64295;44.772;39.872;2023-07-31T02:46:51;4.22;;;2.35;;
75682;SDS011;64295;44.772;39.872;2023-07-31T02:49:17;3.88;;;2.67;;
75682;SDS011;64295;44.772;39.872;2023-07-31T02:51:43;4.35;;;2.42;;
75682;SDS011;64295;44.772;39.872;2023-07-31T02:54:09;5.63;;;3.08;;
75682;SDS011;64295;44.772;39.872;2023-07-31T02:56:35;6.13;;;2.65;;
75682;SDS011;64295;44.772;39.872;2023-07-31T02:59:01;3.20;;;2.35;;
75682;SDS011;64295;44.772;39.872;2023-07-31T03:01:27;3.80;;;2.50;;
75682;SDS011;64295;44.772;39.872;2023-07-31T03:03:53;4.38;;;2.92;;
75682;SDS011;64295;44.772;39.872;2023-07-31T03:06:19;8.45;;;3.08;;
75682;SDS011;64295;44.772;39.872;2023-07-31T03:08:44;4.15;;;2.30;;
75682;SDS011;64295;44.772;39.872;2023-07-31T03:11:10;4.38;;;3.30;;
75682;SDS011;64295;44.772;39.872;2023-07-31T03:13:36;4.40;;;3.38;;
75682;SDS011;64295;44.772;39.872;2023-07-31T03:16:02;4.82;;;3.08;;
75682;SDS011;64295;44.772;39.872;2023-07-31T03:18:28;2.85;;;2.42;;
75682;SDS011;64295;44.772;39.872;2023-07-31T03:20:54;5.88;;;3.05;;
75682;SDS011;64295;44.772;39.872;2023-07-31T03:23:20;8.30;;;3.00;;
75682;SDS011;64295;44.772;39.872;2023-07-31T03:25:58;4.75;;;3.08;;
75682;SDS011;64295;44.772;39.872;2023-07-31T03:28:27;3.75;;;2.80;;
75682;SDS011;64295;44.772;39.872;2023-07-31T03:30:53;4.57;;;3.00;;
75682;SDS011;64295;44.772;39.872;2023-07-31T03:33:19;5.18;;;3.22;;
75682;SDS011;64295;44.772;39.872;2023-07-31T03:35:45;3.85;;;3.00;;
75682;SDS011;64295;44.772;39.872;2023-07-31T03:38:11;5.55;;;3.65;;
75682;SDS011;64295;44.772;39.872;2023-07-31T03:40:37;10.18;;;3.90;;
75682;SDS011;64295;44.772;39.872;2023-07-31T03:43:03;5.30;;;3.38;;
75682;SDS011;64295;44.772;39.872;2023-07-31T03:45:29;7.38;;;4.05;;
75682;SDS011;64295;44.772;39.872;2023-07-31T03:47:55;6.90;;;3.70;;
75682;SDS011;64295;44.772;39.872;2023-07-31T03:50:22;6.72;;;3.83;;
75682;SDS011;64295;44.772;39.872;2023-07-31T03:52:50;13.35;;;4.90;;
75682;SDS011;64295;44.772;39.872;2023-07-31T03:55:16;12.18;;;6.45;;
75682;SDS011;64295;44.772;39.872;2023-07-31T03:57:43;5.75;;;3.88;;
75682;SDS011;64295;44.772;39.872;2023-07-31T04:00:09;7.40;;;4.93;;
75682;SDS011;64295;44.772;39.872;2023-07-31T04:02:38;7.03;;;3.63;;
75682;SDS011;64295;44.772;39.872;2023-07-31T04:05:04;7.80;;;4.00;;
75682;SDS011;64295;44.772;39.872;2023-07-31T04:07:30;4.22;;;3.38;;
75682;SDS011;64295;44.772;39.872;2023-07-31T04:09:57;6.85;;;4.55;;
75682;SDS011;64295;44.772;39.872;2023-07-31T04:12:23;11.45;;;4.63;;
75682;SDS011;64295;44.772;39.872;2023-07-31T04:14:49;8.07;;;3.50;;
75682;SDS011;64295;44.772;39.872;2023-07-31T04:17:15;6.25;;;3.53;;
75682;SDS011;64295;44.772;39.872;2023-07-31T04:19:42;7.35;;;3.75;;
75682;SDS011;64295;44.772;39.872;2023-07-31T04:22:08;8.55;;;3.85;;
75682;SDS011;64295;44.772;39.872;2023-07-31T04:24:34;8.27;;;3.40;;
75682;SDS011;64295;44.772;39.872;2023-07-31T04:27:00;3.47;;;2.88;;
75682;SDS011;64295;44.772;39.872;2023-07-31T04:29:26;7.03;;;3.08;;
75682;SDS011;64295;44.772;39.872;2023-07-31T04:31:52;4.63;;;2.55;;
75682;SDS011;64295;44.772;39.872;2023-07-31T04:34:17;3.95;;;2.92;;
75682;SDS011;64295;44.772;39.872;2023-07-31T04:36:43;7.18;;;3.08;;
75682;SDS011;64295;44.772;39.872;2023-07-31T04:39:09;5.88;;;3.47;;
75682;SDS011;64295;44.772;39.872;2023-07-31T04:41:35;4.97;;;3.33;;
75682;SDS011;64295;44.772;39.872;2023-07-31T04:44:01;9.05;;;3.35;;
75682;SDS011;64295;44.772;39.872;2023-07-31T04:46:29;10.13;;;3.55;;
75682;SDS011;64295;44.772;39.872;2023-07-31T04:48:55;5.57;;;3.15;;
75682;SDS011;64295;44.772;39.872;2023-07-31T04:51:21;7.05;;;2.97;;
75682;SDS011;64295;44.772;39.872;2023-07-31T04:53:48;3.80;;;2.40;;
75682;SDS011;64295;44.772;39.872;2023-07-31T04:56:14;5.03;;;2.53;;
75682;SDS011;64295;44.772;39.872;2023-07-31T04:58:41;4.32;;;3.58;;
75682;SDS011;64295;44.772;39.872;2023-07-31T05:01:07;3.03;;;2.72;;
75682;SDS011;64295;44.772;39.872;2023-07-31T05:03:33;4.50;;;2.78;;
75682;SDS011;64295;44.772;39.872;2023-07-31T05:05:58;4.90;;;3.08;;
75682;SDS011;64295;44.772;39.872;2023-07-31T05:08:24;7.65;;;3.38;;
75682;SDS011;64295;44.772;39.872;2023-07-31T05:10:50;4.03;;;2.20;;
75682;SDS011;64295;44.772;39.872;2023-07-31T05:13:16;11.02;;;4.15;;
75682;SDS011;64295;44.772;39.872;2023-07-31T05:15:42;3.92;;;2.28;;
75682;SDS011;64295;44.772;39.872;2023-07-31T05:18:08;7.32;;;2.85;;
75682;SDS011;64295;44.772;39.872;2023-07-31T05:20:34;6.20;;;2.65;;
75682;SDS011;64295;44.772;39.872;2023-07-31T05:23:00;6.50;;;3.30;;
75682;SDS011;64295;44.772;39.872;2023-07-31T05:25:26;15.60;;;7.25;;
75682;SDS011;64295;44.772;39.872;2023-07-31T05:27:52;13.60;;;8.05;;
75682;SDS011;64295;44.772;39.872;2023-07-31T05:30:17;8.65;;;4.97;;
75682;SDS011;64295;44.772;39.872;2023-07-31T05:32:43;5.75;;;2.63;;
75682;SDS011;64295;44.772;39.872;2023-07-31T05:35:09;7.18;;;2.67;;
75682;SDS011;64295;44.772;39.872;2023-07-31T05:37:35;3.65;;;2.33;;
75682;SDS011;64295;44.772;39.872;2023-07-31T05:40:01;10.18;;;3.20;;
75682;SDS011;64295;44.772;39.872;2023-07-31T05:42:27;6.13;;;3.22;;
75682;SDS011;64295;44.772;39.872;2023-07-31T05:44:53;10.00;;;3.28;;
75682;SDS011;64295;44.772;39.872;2023-07-31T05:47:19;5.03;;;2.05;;
75682;SDS011;64295;44.772;39.872;2023-07-31T05:49:45;3.67;;;2.67;;
75682;SDS011;64295;44.772;39.872;2023-07-31T05:52:11;4.13;;;2.55;;
75682;SDS011;64295;44.772;39.872;2023-07-31T05:54:36;3.13;;;2.13;;
75682;SDS011;64295;44.772;39.872;2023-07-31T05:57:02;3.90;;;2.38;;
75682;SDS011;64295;44.772;39.872;2023-07-31T05:59:28;7.10;;;2.83;;
75682;SDS011;64295;44.772;39.872;2023-07-31T06:01:56;3.03;;;2.15;;
75682;SDS011;64295;44.772;39.872;2023-07-31T06:04:22;2.78;;;1.80;;
75682;SDS011;64295;44.772;39.872;2023-07-31T06:06:50;5.43;;;2.45;;
75682;SDS011;64295;44.772;39.872;2023-07-31T06:09:17;3.40;;;2.30;;
75682;SDS011;64295;44.772;39.872;2023-07-31T06:11:43;3.03;;;2.30;;
75682;SDS011;64295;44.772;39.872;2023-07-31T06:14:08;6.03;;;2.42;;
75682;SDS011;64295;44.772;39.872;2023-07-31T06:16:34;6.18;;;2.75;;
75682;SDS011;64295;44.772;39.872;2023-07-31T06:19:00;3.47;;;2.15;;
75682;SDS011;64295;44.772;39.872;2023-07-31T06:21:26;3.83;;;2.38;;
75682;SDS011;64295;44.772;39.872;2023-07-31T06:23:52;3.05;;;1.98;;
75682;SDS011;64295;44.772;39.872;2023-07-31T06:26:18;3.00;;;2.38;;
75682;SDS011;64295;44.772;39.872;2023-07-31T06:28:44;3.75;;;2.15;;
75682;SDS011;64295;44.772;39.872;2023-07-31T06:31:10;3.45;;;1.90;;
75682;SDS011;64295;44.772;39.872;2023-07-31T06:33:36;20.38;;;2.50;;
75682;SDS011;64295;44.772;39.872;2023-07-31T06:36:01;2.38;;;1.45;;
75682;SDS011;64295;44.772;39.872;2023-07-31T06:38:27;9.45;;;2.15;;
75682;SDS011;64295;44.772;39.872;2023-07-31T06:40:54;4.07;;;2.38;;
75682;SDS011;64295;44.772;39.872;2023-07-31T06:43:20;3.70;;;1.98;;
75682;SDS011;64295;44.772;39.872;2023-07-31T06:45:46;4.28;;;1.88;;
75682;SDS011;64295;44.772;39.872;2023-07-31T06:48:13;5.50;;;1.38;;
75682;SDS011;64295;44.772;39.872;2023-07-31T06:50:39;2.92;;;1.85;;
75682;SDS011;64295;44.772;39.872;2023-07-31T06:53:05;3.25;;;2.13;;
75682;SDS011;64295;44.772;39.872;2023-07-31T06:55:31;2.58;;;1.75;;
75682;SDS011;64295;44.772;39.872;2023-07-31T06:57:57;3.20;;;1.55;;
75682;SDS011;64295;44.772;39.872;2023-07-31T07:00:23;4.22;;;1.63;;
75682;SDS011;64295;44.772;39.872;2023-07-31T07:02:50;1.88;;;1.63;;
75682;SDS011;64295;44.772;39.872;2023-07-31T07:05:16;3.97;;;1.42;;
75682;SDS011;64295;44.772;39.872;2023-07-31T07:07:42;5.65;;;2.15;;
75682;SDS011;64295;44.772;39.872;2023-07-31T07:10:10;2.25;;;1.67;;
75682;SDS011;64295;44.772;39.872;2023-07-31T07:12:36;2.17;;;1.92;;
75682;SDS011;64295;44.772;39.872;2023-07-31T07:15:02;3.53;;;1.63;;
75682;SDS011;64295;44.772;39.872;2023-07-31T07:17:29;2.17;;;1.50;;
75682;SDS011;64295;44.772;39.872;2023-07-31T07:19:58;2.72;;;1.63;;
75682;SDS011;64295;44.772;39.872;2023-07-31T07:22:25;5.00;;;2.00;;
75682;SDS011;64295;44.772;39.872;2023-07-31T07:24:52;6.13;;;1.75;;
75682;SDS011;64295;44.772;39.872;2023-07-31T07:27:18;3.17;;;1.83;;
75682;SDS011;64295;44.772;39.872;2023-07-31T07:29:45;1.95;;;1.27;;
75682;SDS011;64295;44.772;39.872;2023-07-31T07:32:11;2.80;;;1.20;;
75682;SDS011;64295;44.772;39.872;2023-07-31T07:34:38;5.63;;;1.55;;
75682;SDS011;64295;44.772;39.872;2023-07-31T07:37:04;5.18;;;1.80;;
75682;SDS011;64295;44.772;39.872;2023-07-31T07:39:30;2.78;;;1.83;;
75682;SDS011;64295;44.772;39.872;2023-07-31T07:41:56;4.10;;;1.45;;
75682;SDS011;64295;44.772;39.872;2023-07-31T07:44:22;3.00;;;1.50;;
75682;SDS011;64295;44.772;39.872;2023-07-31T07:46:48;2.40;;;1.30;;
75682;SDS011;64295;44.772;39.872;2023-07-31T07:49:13;1.90;;;1.23;;
75682;SDS011;64295;44.772;39.872;2023-07-31T07:51:39;3.50;;;2.10;;
75682;SDS011;64295;44.772;39.872;2023-07-31T07:54:05;2.90;;;1.25;;
75682;SDS011;64295;44.772;39.872;2023-07-31T07:56:32;8.00;;;1.85;;
75682;SDS011;64295;44.772;39.872;2023-07-31T07:58:58;2.67;;;1.70;;
75682;SDS011;64295;44.772;39.872;2023-07-31T08:01:24;1.70;;;1.15;;
75682;SDS011;64295;44.772;39.872;2023-07-31T08:03:50;2.60;;;1.55;;
75682;SDS011;64295;44.772;39.872;2023-07-31T08:06:16;2.03;;;1.60;;
75682;SDS011;64295;44.772;39.872;2023-07-31T08:08:42;2.70;;;1.40;;
75682;SDS011;64295;44.772;39.872;2023-07-31T08:11:08;2.90;;;1.50;;
75682;SDS011;64295;44.772;39.872;2023-07-31T08:13:34;3.40;;;1.60;;
75682;SDS011;64295;44.772;39.872;2023-07-31T08:16:02;2.78;;;1.55;;
75682;SDS011;64295;44.772;39.872;2023-07-31T08:18:30;3.15;;;1.60;;
75682;SDS011;64295;44.772;39.872;2023-07-31T08:20:57;3.47;;;1.65;;
75682;SDS011;64295;44.772;39.872;2023-07-31T08:23:23;5.78;;;1.73;;
75682;SDS011;64295;44.772;39.872;2023-07-31T08:25:49;5.13;;;1.40;;
75682;SDS011;64295;44.772;39.872;2023-07-31T08:28:16;2.25;;;1.73;;
75682;SDS011;64295;44.772;39.872;2023-07-31T08:30:42;4.85;;;1.65;;
75682;SDS011;64295;44.772;39.872;2023-07-31T08:33:08;2.05;;;1.50;;
75682;SDS011;64295;44.772;39.872;2023-07-31T08:35:34;2.67;;;1.95;;
75682;SDS011;64295;44.772;39.872;2023-07-31T08:38:00;3.85;;;1.80;;
75682;SDS011;64295;44.772;39.872;2023-07-31T08:40:26;7.70;;;1.90;;
75682;SDS011;64295;44.772;39.872;2023-07-31T08:42:53;6.97;;;2.05;;
75682;SDS011;64295;44.772;39.872;2023-07-31T08:45:21;3.28;;;1.90;;
75682;SDS011;64295;44.772;39.872;2023-07-31T08:47:48;3.22;;;1.83;;
75682;SDS011;64295;44.772;39.872;2023-07-31T08:50:16;4.32;;;1.60;;
75682;SDS011;64295;44.772;39.872;2023-07-31T08:52:44;2.22;;;1.60;;
75682;SDS011;64295;44.772;39.872;2023-07-31T08:55:11;5.53;;;1.77;;
75682;SDS011;64295;44.772;39.872;2023-07-31T08:57:37;2.00;;;1.80;;
75682;SDS011;64295;44.772;39.872;2023-07-31T09:00:04;3.83;;;1.95;;
75682;SDS011;64295;44.772;39.872;2023-07-31T09:02:37;2.97;;;1.90;;
75682;SDS011;64295;44.772;39.872;2023-07-31T09:05:06;3.50;;;1.58;;
75682;SDS011;64295;44.772;39.872;2023-07-31T09:07:36;2.10;;;1.40;;
75682;SDS011;64295;44.772;39.872;2023-07-31T09:10:03;7.03;;;2.03;;
75682;SDS011;64295;44.772;39.872;2023-07-31T09:12:30;3.35;;;1.70;;
75682;SDS011;64295;44.772;39.872;2023-07-31T09:14:59;7.20;;;1.85;;
75682;SDS011;64295;44.772;39.872;2023-07-31T09:17:29;4.85;;;1.63;;
75682;SDS011;64295;44.772;39.872;2023-07-31T09:19:56;2.75;;;2.10;;
75682;SDS011;64295;44.772;39.872;2023-07-31T09:22:32;4.03;;;1.60;;
75682;SDS011;64295;44.772;39.872;2023-07-31T09:27:55;2.80;;;1.60;;
75682;SDS011;64295;44.772;39.872;2023-07-31T09:30:25;2.63;;;1.38;;
75682;SDS011;64295;44.772;39.872;2023-07-31T09:32:59;2.22;;;1.90;;
75682;SDS011;64295;44.772;39.872;2023-07-31T09:35:31;5.75;;;1.27;;
75682;SDS011;64295;44.772;39.872;2023-07-31T09:37:59;2.72;;;1.63;;
75682;SDS011;64295;44.772;39.872;2023-07-31T09:40:35;4.05;;;1.40;;
75682;SDS011;64295;44.772;39.872;2023-07-31T09:43:03;3.45;;;1.20;;
75682;SDS011;64295;44.772;39.872;2023-07-31T09:45:33;3.20;;;1.48;;
75682;SDS011;64295;44.772;39.872;2023-07-31T09:48:02;5.03;;;1.10;;
75682;SDS011;64295;44.772;39.872;2023-07-31T09:50:28;3.13;;;1.13;;
75682;SDS011;64295;44.772;39.872;2023-07-31T09:52:55;2.53;;;1.05;;
75682;SDS011;64295;44.772;39.872;2023-07-31T09:55:21;2.38;;;1.35;;
75682;SDS011;64295;44.772;39.872;2023-07-31T09:57:48;2.15;;;0.95;;
75682;SDS011;64295;44.772;39.872;2023-07-31T10:00:15;2.42;;;1.13;;
75682;SDS011;64295;44.772;39.872;2023-07-31T10:05:14;3.25;;;1.27;;
75682;SDS011;64295;44.772;39.872;2023-07-31T10:07:45;2.75;;;1.50;;
75682;SDS011;64295;44.772;39.872;2023-07-31T10:10:17;1.75;;;0.90;;
75682;SDS011;64295;44.772;39.872;2023-07-31T10:12:46;3.08;;;1.10;;
75682;SDS011;64295;44.772;39.872;2023-07-31T10:15:17;1.83;;;1.33;;
75682;SDS011;64295;44.772;39.872;2023-07-31T10:17:43;6.43;;;1.38;;
75682;SDS011;64295;44.772;39.872;2023-07-31T10:20:09;4.80;;;1.50;;
75682;SDS011;64295;44.772;39.872;2023-07-31T10:22:36;2.03;;;1.20;;
75682;SDS011;64295;44.772;39.872;2023-07-31T10:25:02;2.63;;;1.40;;
75682;SDS011;64295;44.772;39.872;2023-07-31T10:27:28;5.80;;;1.35;;
75682;SDS011;64295;44.772;39.872;2023-07-31T10:29:55;2.40;;;1.15;;
75682;SDS011;64295;44.772;39.872;2023-07-31T10:32:22;2.90;;;1.10;;
75682;SDS011;64295;44.772;39.872;2023-07-31T10:34:50;6.97;;;1.77;;
75682;SDS011;64295;44.772;39.872;2023-07-31T10:37:27;2.03;;;1.63;;
75682;SDS011;64295;44.772;39.872;2023-07-31T10:40:04;1.35;;;1.17;;
75682;SDS011;64295;44.772;39.872;2023-07-31T10:42:32;2.72;;;1.60;;
75682;SDS011;64295;44.772;39.872;2023-07-31T10:45:06;3.38;;;1.70;;
75682;SDS011;64295;44.772;39.872;2023-07-31T10:47:38;2.45;;;1.27;;
75682;SDS011;64295;44.772;39.872;2023-07-31T10:50:16;1.63;;;1.20;;
75682;SDS011;64295;44.772;39.872;2023-07-31T10:52:49;2.00;;;1.30;;
75682;SDS011;64295;44.772;39.872;2023-07-31T10:58:10;3.38;;;2.05;;
75682;SDS011;64295;44.772;39.872;2023-07-31T11:00:43;2.92;;;1.58;;
75682;SDS011;64295;44.772;39.872;2023-07-31T11:03:14;1.77;;;1.13;;
75682;SDS011;64295;44.772;39.872;2023-07-31T11:05:48;2.35;;;1.35;;
75682;SDS011;64295;44.772;39.872;2023-07-31T11:08:27;3.55;;;1.60;;
75682;SDS011;64295;44.772;39.872;2023-07-31T11:11:04;2.30;;;1.40;;
75682;SDS011;64295;44.772;39.872;2023-07-31T11:13:33;3.13;;;1.38;;
75682;SDS011;64295;44.772;39.872;2023-07-31T11:16:06;3.03;;;1.80;;
75682;SDS011;64295;44.772;39.872;2023-07-31T11:18:32;2.53;;;1.30;;
75682;SDS011;64295;44.772;39.872;2023-07-31T11:20:58;1.85;;;1.38;;
75682;SDS011;64295;44.772;39.872;2023-07-31T11:23:24;1.77;;;1.27;;
75682;SDS011;64295;44.772;39.872;2023-07-31T11:25:50;5.97;;;1.23;;
75682;SDS011;64295;44.772;39.872;2023-07-31T11:28:16;1.92;;;1.38;;
75682;SDS011;64295;44.772;39.872;2023-07-31T11:30:44;2.13;;;1.33;;
75682;SDS011;64295;44.772;39.872;2023-07-31T11:33:12;2.45;;;1.20;;
75682;SDS011;64295;44.772;39.872;2023-07-31T11:38:07;3.40;;;1.33;;
75682;SDS011;64295;44.772;39.872;2023-07-31T11:40:42;4.15;;;1.20;;
75682;SDS011;64295;44.772;39.872;2023-07-31T11:43:09;1.88;;;1.30;;
75682;SDS011;64295;44.772;39.872;2023-07-31T11:45:36;2.03;;;1.42;;
75682;SDS011;64295;44.772;39.872;2023-07-31T11:48:03;2.50;;;1.50;;
75682;SDS011;64295;44.772;39.872;2023-07-31T11:50:29;5.18;;;1.75;;
75682;SDS011;64295;44.772;39.872;2023-07-31T11:53:00;4.85;;;1.75;;
75682;SDS011;64295;44.772;39.872;2023-07-31T11:55:31;4.00;;;1.55;;
75682;SDS011;64295;44.772;39.872;2023-07-31T11:57:58;5.15;;;1.25;;
75682;SDS011;64295;44.772;39.872;2023-07-31T12:00:25;2.42;;;1.42;;
75682;SDS011;64295;44.772;39.872;2023-07-31T12:02:52;1.80;;;1.20;;
75682;SDS011;64295;44.772;39.872;2023-07-31T12:05:19;2.22;;;0.95;;
75682;SDS011;64295;44.772;39.872;2023-07-31T12:07:45;2.80;;;1.60;;
75682;SDS011;64295;44.772;39.872;2023-07-31T12:15:34;2.20;;;1.08;;
75682;SDS011;64295;44.772;39.872;2023-07-31T12:18:05;6.80;;;1.70;;
75682;SDS011;64295;44.772;39.872;2023-07-31T12:20:32;1.27;;;0.95;;
75682;SDS011;64295;44.772;39.872;2023-07-31T12:22:59;3.75;;;1.55;;
75682;SDS011;64295;44.772;39.872;2023-07-31T12:25:29;1.63;;;1.23;;
75682;SDS011;64295;44.772;39.872;2023-07-31T12:27:56;2.50;;;1.10;;
75682;SDS011;64295;44.772;39.872;2023-07-31T12:30:26;1.58;;;1.10;;
75682;SDS011;64295;44.772;39.872;2023-07-31T12:32:53;3.03;;;1.15;;
75682;SDS011;64295;44.772;39.872;2023-07-31T12:35:19;2.67;;;1.50;;
75682;SDS011;64295;44.772;39.872;2023-07-31T12:37:45;3.22;;;1.20;;
75682;SDS011;64295;44.772;39.872;2023-07-31T12:40:11;3.13;;;1.30;;
75682;SDS011;64295;44.772;39.872;2023-07-31T12:42:37;1.75;;;1.02;;
75682;SDS011;64295;44.772;39.872;2023-07-31T12:45:03;3.58;;;1.30;;
75682;SDS011;64295;44.772;39.872;2023-07-31T12:47:30;2.15;;;1.48;;
75682;SDS011;64295;44.772;39.872;2023-07-31T12:49:56;1.35;;;1.25;;
75682;SDS011;64295;44.772;39.872;2023-07-31T12:52:21;1.75;;;1.10;;
75682;SDS011;64295;44.772;39.872;2023-07-31T12:54:47;2.85;;;1.20;;
75682;SDS011;64295;44.772;39.872;2023-07-31T12:57:13;4.28;;;1.08;;
75682;SDS011;64295;44.772;39.872;2023-07-31T12:59:39;3.33;;;1.40;;
75682;SDS011;64295;44.772;39.872;2023-07-31T13:02:05;1.35;;;0.93;;
75682;SDS011;64295;44.772;39.872;2023-07-31T13:04:31;2.53;;;1.85;;
75682;SDS011;64295;44.772;39.872;2023-07-31T13:06:57;1.65;;;1.00;;
75682;SDS011;64295;44.772;39.872;2023-07-31T13:09:23;2.10;;;1.02;;
75682;SDS011;64295;44.772;39.872;2023-07-31T13:12:55;1.45;;;1.00;;
75682;SDS011;64295;44.772;39.872;2023-07-31T13:15:22;2.88;;;1.38;;
75682;SDS011;64295;44.772;39.872;2023-07-31T13:17:48;1.45;;;0.98;;
75682;SDS011;64295;44.772;39.872;2023-07-31T13:20:14;3.45;;;1.35;;
75682;SDS011;64295;44.772;39.872;2023-07-31T13:22:40;2.25;;;1.33;;
75682;SDS011;64295;44.772;39.872;2023-07-31T13:25:06;2.63;;;1.05;;
75682;SDS011;64295;44.772;39.872;2023-07-31T13:27:32;4.70;;;1.30;;
75682;SDS011;64295;44.772;39.872;2023-07-31T13:29:59;1.95;;;1.30;;
75682;SDS011;64295;44.772;39.872;2023-07-31T13:32:24;2.28;;;1.13;;
75682;SDS011;64295;44.772;39.872;2023-07-31T13:34:51;2.35;;;1.10;;
75682;SDS011;64295;44.772;39.872;2023-07-31T13:37:17;2.50;;;1.20;;
75682;SDS011;64295;44.772;39.872;2023-07-31T13:39:43;2.50;;;1.60;;
75682;SDS011;64295;44.772;39.872;2023-07-31T13:42:09;4.55;;;1.38;;
75682;SDS011;64295;44.772;39.872;2023-07-31T13:44:37;3.10;;;1.85;;
75682;SDS011;64295;44.772;39.872;2023-07-31T13:47:03;4.57;;;1.40;;
75682;SDS011;64295;44.772;39.872;2023-07-31T13:49:29;1.73;;;1.30;;
75682;SDS011;64295;44.772;39.872;2023-07-31T13:51:56;2.97;;;1.30;;
75682;SDS011;64295;44.772;39.872;2023-07-31T13:54:23;3.90;;;1.50;;
75682;SDS011;64295;44.772;39.872;2023-07-31T13:56:49;2.67;;;1.33;;
75682;SDS011;64295;44.772;39.872;2023-07-31T13:59:15;2.15;;;1.42;;
75682;SDS011;64295;44.772;39.872;2023-07-31T14:01:42;3.35;;;1.27;;
75682;SDS011;64295;44.772;39.872;2023-07-31T14:04:08;3.85;;;1.60;;
75682;SDS011;64295;44.772;39.872;2023-07-31T14:06:34;2.05;;;1.30;;
75682;SDS011;64295;44.772;39.872;2023-07-31T14:09:01;3.45;;;1.38;;
75682;SDS011;64295;44.772;39.872;2023-07-31T14:11:27;1.90;;;1.35;;
75682;SDS011;64295;44.772;39.872;2023-07-31T14:13:54;5.63;;;1.20;;
75682;SDS011;64295;44.772;39.872;2023-07-31T14:16:21;6.60;;;1.58;;
75682;SDS011;64295;44.772;39.872;2023-07-31T14:18:47;4.25;;;1.48;;
75682;SDS011;64295;44.772;39.872;2023-07-31T14:21:13;2.85;;;1.23;;
75682;SDS011;64295;44.772;39.872;2023-07-31T14:23:40;2.35;;;1.20;;
75682;SDS011;64295;44.772;39.872;2023-07-31T14:26:06;2.63;;;1.52;;
75682;SDS011;64295;44.772;39.872;2023-07-31T14:28:32;3.05;;;1.58;;
75682;SDS011;64295;44.772;39.872;2023-07-31T14:30:58;4.68;;;2.10;;
75682;SDS011;64295;44.772;39.872;2023-07-31T14:33:24;4.88;;;1.42;;
75682;SDS011;64295;44.772;39.872;2023-07-31T14:35:50;5.95;;;1.38;;
75682;SDS011;64295;44.772;39.872;2023-07-31T14:38:15;5.15;;;1.13;;
75682;SDS011;64295;44.772;39.872;2023-07-31T14:40:41;3.42;;;1.65;;
75682;SDS011;64295;44.772;39.872;2023-07-31T14:43:07;6.85;;;1.60;;
75682;SDS011;64295;44.772;39.872;2023-07-31T14:45:33;2.75;;;1.20;;
75682;SDS011;64295;44.772;39.872;2023-07-31T14:47:59;3.67;;;1.55;;
75682;SDS011;64295;44.772;39.872;2023-07-31T14:50:25;3.03;;;1.50;;
75682;SDS011;64295;44.772;39.872;2023-07-31T14:52:51;2.60;;;1.75;;
75682;SDS011;64295;44.772;39.872;2023-07-31T14:55:18;6.38;;;1.70;;